Time;durP1;ratioP1;P1;durP2;ratioP2;P2;SDS_P1;SDS_P2;PMS_P1;PMS_P2;Temp;Humidity;BMP_temperature;BMP_pressure;BME280_temperature;BME280_humidity;BME280_pressure;Samples;Min_cycle;Max_cycle;Signal;HPM_P1;HPM_P2
2023/06/16 00:01:04;;;;;;;3.53;3.23;;;;;;;;;;5032929;28;20255;-28
2023/06/16 00:03:33;;;;;;;2.67;2.47;;;;;;;;;;5042412;28;20194;-28
2023/06/16 00:06:03;;;;;;;3.17;2.83;;;;;;;;;;5041657;28;20196;-29
2023/06/16 00:08:30;;;;;;;2.70;2.50;;;;;;;;;;5028972;28;20222;-30
2023/06/16 00:10:59;;;;;;;3.27;2.90;;;;;;;;;;5037163;28;20206;-27
2023/06/16 00:13:26;;;;;;;3.47;3.10;;;;;;;;;;5037455;28;20221;-26
2023/06/16 00:15:53;;;;;;;3.30;3.00;;;;;;;;;;5034449;28;20202;-28
2023/06/16 00:18:20;;;;;;;3.00;2.80;;;;;;;;;;5036894;28;20237;-29
2023/06/16 00:20:51;;;;;;;3.83;2.90;;;;;;;;;;5038681;28;20214;-29
2023/06/16 00:23:20;;;;;;;3.70;3.10;;;;;;;;;;5038116;28;20684;-29
2023/06/16 00:25:47;;;;;;;5.10;3.20;;;;;;;;;;5030364;28;20236;-26
2023/06/16 00:28:16;;;;;;;3.30;2.97;;;;;;;;;;5029549;28;20229;-28
2023/06/16 00:30:44;;;;;;;3.93;3.20;;;;;;;;;;5029838;28;20220;-30
2023/06/16 00:33:12;;;;;;;3.03;2.83;;;;;;;;;;5040724;28;20224;-26
2023/06/16 00:35:40;;;;;;;3.43;3.13;;;;;;;;;;5039390;28;20204;-29
2023/06/16 00:38:07;;;;;;;3.23;2.93;;;;;;;;;;5041467;28;20213;-28
2023/06/16 00:40:34;;;;;;;6.13;3.07;;;;;;;;;;5037214;28;20206;-27
2023/06/16 00:43:02;;;;;;;2.97;2.63;;;;;;;;;;5049411;28;20190;-26
2023/06/16 00:45:31;;;;;;;3.60;2.97;;;;;;;;;;5051193;28;20201;-30
2023/06/16 00:47:59;;;;;;;3.97;3.40;;;;;;;;;;5045038;28;20215;-28
2023/06/16 00:50:27;;;;;;;2.80;2.60;;;;;;;;;;5037117;28;20210;-29
2023/06/16 00:52:54;;;;;;;4.90;2.97;;;;;;;;;;5030261;28;20306;-29
2023/06/16 00:55:21;;;;;;;3.90;3.20;;;;;;;;;;5042465;28;20206;-31
2023/06/16 00:57:49;;;;;;;3.50;2.97;;;;;;;;;;5045514;28;20695;-28
2023/06/16 01:00:17;;;;;;;3.10;2.90;;;;;;;;;;5033034;28;20257;-27
2023/06/16 01:02:46;;;;;;;3.53;3.23;;;;;;;;;;5032142;28;20234;-27
2023/06/16 01:05:16;;;;;;;3.00;2.80;;;;;;;;;;5031969;28;20205;-26
2023/06/16 01:07:45;;;;;;;4.50;3.63;;;;;;;;;;5030472;28;20209;-30
2023/06/16 01:10:15;;;;;;;3.43;3.13;;;;;;;;;;5027878;28;20233;-27
2023/06/16 01:12:46;;;;;;;3.23;2.93;;;;;;;;;;5039444;28;20680;-26
2023/06/16 01:15:16;;;;;;;2.77;2.57;;;;;;;;;;5052590;28;20201;-29
2023/06/16 01:17:46;;;;;;;3.87;3.03;;;;;;;;;;5041863;28;20202;-29
2023/06/16 01:20:19;;;;;;;3.60;3.30;;;;;;;;;;5039734;28;20226;-27
2023/06/16 01:22:58;;;;;;;5.33;3.37;;;;;;;;;;5039009;28;20680;-30
2023/06/16 01:25:29;;;;;;;3.10;2.90;;;;;;;;;;5033775;28;20597;-29
2023/06/16 01:27:57;;;;;;;3.07;2.87;;;;;;;;;;5032229;28;20664;-27
2023/06/16 01:30:24;;;;;;;3.03;2.80;;;;;;;;;;5048937;28;20425;-28
2023/06/16 01:32:54;;;;;;;3.40;3.10;;;;;;;;;;5039685;28;20282;-30
2023/06/16 01:35:22;;;;;;;3.33;3.03;;;;;;;;;;5036576;28;20198;-31
2023/06/16 01:37:51;;;;;;;3.80;3.50;;;;;;;;;;5039972;28;20276;-29
2023/06/16 01:40:18;;;;;;;5.00;3.80;;;;;;;;;;5038429;28;20282;-29
2023/06/16 01:42:47;;;;;;;4.60;3.03;;;;;;;;;;5039360;28;20209;-28
2023/06/16 01:45:15;;;;;;;3.17;2.87;;;;;;;;;;5050103;28;20217;-28
2023/06/16 01:47:43;;;;;;;2.93;2.73;;;;;;;;;;5042206;28;20218;-28
2023/06/16 01:50:11;;;;;;;3.80;3.40;;;;;;;;;;5035472;28;20229;-27
2023/06/16 01:52:38;;;;;;;3.87;3.10;;;;;;;;;;5038086;28;20208;-31
2023/06/16 01:55:05;;;;;;;3.30;3.00;;;;;;;;;;5038228;28;20204;-27
2023/06/16 01:57:32;;;;;;;3.50;3.30;;;;;;;;;;5029101;28;20209;-25
2023/06/16 02:00:04;;;;;;;3.73;3.43;;;;;;;;;;5030537;28;20225;-28
2023/06/16 02:02:32;;;;;;;3.20;2.97;;;;;;;;;;5035862;28;20672;-30
2023/06/16 02:05:03;;;;;;;3.50;3.20;;;;;;;;;;5051044;28;20573;-26
2023/06/16 02:07:33;;;;;;;4.03;3.33;;;;;;;;;;5042609;28;20754;-27
2023/06/16 02:10:01;;;;;;;3.13;2.90;;;;;;;;;;5046368;28;20285;-27
2023/06/16 02:12:28;;;;;;;4.13;3.23;;;;;;;;;;5047758;28;20279;-29
2023/06/16 02:14:56;;;;;;;4.10;3.73;;;;;;;;;;5040815;28;20209;-30
2023/06/16 02:17:27;;;;;;;3.30;3.00;;;;;;;;;;5032563;28;20210;-30
2023/06/16 02:19:54;;;;;;;3.73;3.43;;;;;;;;;;5048321;28;20273;-28
2023/06/16 02:22:21;;;;;;;3.40;3.10;;;;;;;;;;5040691;28;20252;-28
2023/06/16 02:24:49;;;;;;;3.90;3.50;;;;;;;;;;5034772;28;20275;-27
2023/06/16 02:27:16;;;;;;;4.07;3.57;;;;;;;;;;5046376;28;20209;-27
2023/06/16 02:29:44;;;;;;;3.07;2.87;;;;;;;;;;5032875;28;20229;-30
2023/06/16 02:32:11;;;;;;;3.40;3.10;;;;;;;;;;5039057;28;20259;-30
2023/06/16 02:34:40;;;;;;;3.50;3.00;;;;;;;;;;5046890;28;20233;-30
2023/06/16 02:37:07;;;;;;;3.70;3.30;;;;;;;;;;5039620;28;20687;-27
2023/06/16 02:39:35;;;;;;;4.27;2.93;;;;;;;;;;5037815;28;20243;-28
2023/06/16 02:42:02;;;;;;;3.60;3.30;;;;;;;;;;5043137;28;20205;-29
2023/06/16 02:44:29;;;;;;;3.93;3.30;;;;;;;;;;5031968;28;20202;-28
2023/06/16 02:46:57;;;;;;;3.73;3.43;;;;;;;;;;5031633;28;20211;-28
2023/06/16 02:49:26;;;;;;;3.70;3.40;;;;;;;;;;5042840;28;20800;-26
2023/06/16 02:51:54;;;;;;;3.73;3.40;;;;;;;;;;5041946;28;20201;-28
2023/06/16 02:54:21;;;;;;;4.13;3.30;;;;;;;;;;5030624;28;20312;-25
2023/06/16 02:56:48;;;;;;;3.33;3.03;;;;;;;;;;5036507;28;20224;-27
2023/06/16 02:59:18;;;;;;;4.93;3.23;;;;;;;;;;5048169;28;20227;-26
2023/06/16 03:01:46;;;;;;;3.57;3.27;;;;;;;;;;5042791;28;20231;-26
2023/06/16 03:04:13;;;;;;;5.03;3.30;;;;;;;;;;5049937;28;20204;-27
2023/06/16 03:06:44;;;;;;;3.50;3.20;;;;;;;;;;5048720;28;20225;-27
2023/06/16 03:09:13;;;;;;;3.40;3.10;;;;;;;;;;5109415;22;20323;-29
2023/06/16 03:11:40;;;;;;;3.87;3.50;;;;;;;;;;5028781;28;20220;-28
2023/06/16 03:14:07;;;;;;;3.97;3.10;;;;;;;;;;5028502;28;20725;-27
2023/06/16 03:16:35;;;;;;;4.17;3.77;;;;;;;;;;5031767;28;20215;-29
2023/06/16 03:19:02;;;;;;;3.50;3.20;;;;;;;;;;5020426;28;20299;-27
2023/06/16 03:21:30;;;;;;;4.77;3.87;;;;;;;;;;5025377;28;20563;-26
2023/06/16 03:23:57;;;;;;;3.97;2.97;;;;;;;;;;5023161;28;20206;-26
2023/06/16 03:26:26;;;;;;;3.77;3.40;;;;;;;;;;5026693;28;20228;-27
2023/06/16 03:28:53;;;;;;;4.37;3.63;;;;;;;;;;5022324;28;20236;-29
2023/06/16 03:31:20;;;;;;;3.40;3.10;;;;;;;;;;5030256;28;20216;-29
2023/06/16 03:33:47;;;;;;;4.00;3.60;;;;;;;;;;5028172;28;20579;-27
2023/06/16 03:36:14;;;;;;;3.83;3.53;;;;;;;;;;5017832;28;20209;-28
2023/06/16 03:38:41;;;;;;;4.10;3.67;;;;;;;;;;5009743;28;20229;-30
2023/06/16 03:41:08;;;;;;;3.47;3.17;;;;;;;;;;5015683;28;20217;-26
2023/06/16 03:43:37;;;;;;;3.37;3.07;;;;;;;;;;5021670;28;20197;-27
2023/06/16 03:46:04;;;;;;;4.67;3.23;;;;;;;;;;5032101;28;20206;-28
2023/06/16 03:48:31;;;;;;;3.53;3.23;;;;;;;;;;5025744;28;20702;-29
2023/06/16 03:50:58;;;;;;;4.80;3.40;;;;;;;;;;5018079;28;20214;-29
2023/06/16 03:53:27;;;;;;;4.17;3.40;;;;;;;;;;5023777;28;20599;-28
2023/06/16 03:55:55;;;;;;;4.03;3.47;;;;;;;;;;5015311;28;20268;-28
2023/06/16 03:58:22;;;;;;;3.70;3.40;;;;;;;;;;5028732;28;20226;-25
2023/06/16 04:00:50;;;;;;;3.53;3.17;;;;;;;;;;5018589;28;20200;-27
2023/06/16 04:03:17;;;;;;;3.73;3.43;;;;;;;;;;5022015;28;20390;-27
2023/06/16 04:05:45;;;;;;;4.30;3.70;;;;;;;;;;5033480;28;20980;-25
2023/06/16 04:08:12;;;;;;;4.20;3.80;;;;;;;;;;5021271;28;20225;-25
2023/06/16 04:10:39;;;;;;;3.73;3.43;;;;;;;;;;5020935;28;20209;-26
2023/06/16 04:13:06;;;;;;;3.80;3.50;;;;;;;;;;5030892;28;20208;-27
2023/06/16 04:15:33;;;;;;;4.53;4.13;;;;;;;;;;5034277;28;20230;-29
2023/06/16 04:18:02;;;;;;;4.27;3.87;;;;;;;;;;5029898;28;20216;-30
2023/06/16 04:20:29;;;;;;;4.37;3.53;;;;;;;;;;5022025;28;20209;-26
2023/06/16 04:22:56;;;;;;;3.70;3.40;;;;;;;;;;5023588;28;20240;-30
2023/06/16 04:25:23;;;;;;;5.07;3.80;;;;;;;;;;5024142;28;20201;-28
2023/06/16 04:27:50;;;;;;;4.07;3.33;;;;;;;;;;5014009;28;20205;-25
2023/06/16 04:30:22;;;;;;;3.87;3.47;;;;;;;;;;5017426;28;20232;-28
2023/06/16 04:32:49;;;;;;;4.47;3.73;;;;;;;;;;5026927;28;20667;-28
2023/06/16 04:35:17;;;;;;;4.60;3.80;;;;;;;;;;5030421;28;20216;-27
2023/06/16 04:37:44;;;;;;;3.93;3.20;;;;;;;;;;5031196;28;20216;-25
2023/06/16 04:40:12;;;;;;;4.90;3.70;;;;;;;;;;5105204;23;20231;-26
2023/06/16 04:42:39;;;;;;;4.57;3.77;;;;;;;;;;5005461;28;20208;-27
2023/06/16 04:45:07;;;;;;;6.20;3.80;;;;;;;;;;5013353;28;20223;-25
2023/06/16 04:47:35;;;;;;;4.97;3.50;;;;;;;;;;5009619;28;20663;-27
2023/06/16 04:50:02;;;;;;;9.57;4.20;;;;;;;;;;5022641;28;20229;-27
2023/06/16 04:52:31;;;;;;;4.63;3.87;;;;;;;;;;5020278;28;20204;-27
2023/06/16 04:54:58;;;;;;;3.90;3.60;;;;;;;;;;5022958;28;20221;-25
2023/06/16 04:57:26;;;;;;;4.93;3.73;;;;;;;;;;5025079;28;20307;-25
2023/06/16 04:59:53;;;;;;;3.77;3.47;;;;;;;;;;5026315;28;20234;-23
2023/06/16 05:02:20;;;;;;;5.13;4.17;;;;;;;;;;5020817;28;20232;-27
2023/06/16 05:04:48;;;;;;;6.27;3.93;;;;;;;;;;5016794;28;20209;-27
2023/06/16 05:07:16;;;;;;;5.23;4.40;;;;;;;;;;5015289;28;20272;-26
2023/06/16 05:09:45;;;;;;;4.50;4.10;;;;;;;;;;5021124;28;20725;-27
2023/06/16 05:12:12;;;;;;;4.83;4.40;;;;;;;;;;5020870;28;20206;-24
2023/06/16 05:14:39;;;;;;;4.97;4.47;;;;;;;;;;5032519;28;20227;-26
2023/06/16 05:17:06;;;;;;;5.93;4.47;;;;;;;;;;5031283;28;20214;-27
2023/06/16 05:19:33;;;;;;;5.37;4.37;;;;;;;;;;5029959;28;20225;-24
2023/06/16 05:22:01;;;;;;;4.50;4.10;;;;;;;;;;5021023;28;20319;-27
2023/06/16 05:24:28;;;;;;;4.67;4.00;;;;;;;;;;5016742;28;20220;-25
2023/06/16 05:26:56;;;;;;;5.40;4.00;;;;;;;;;;5020264;28;20208;-26
2023/06/16 05:29:24;;;;;;;5.87;4.50;;;;;;;;;;5026320;28;20222;-27
2023/06/16 05:31:51;;;;;;;4.57;4.17;;;;;;;;;;5028225;28;20292;-27
2023/06/16 05:34:18;;;;;;;5.80;4.80;;;;;;;;;;5022898;28;20274;-25
2023/06/16 05:36:45;;;;;;;6.80;4.83;;;;;;;;;;5020741;28;20213;-27
2023/06/16 05:39:13;;;;;;;5.43;4.93;;;;;;;;;;5014782;28;20218;-27
2023/06/16 05:41:40;;;;;;;7.47;5.17;;;;;;;;;;5020183;28;20221;-26
2023/06/16 05:44:08;;;;;;;5.03;4.47;;;;;;;;;;5028801;28;20220;-25
2023/06/16 05:46:35;;;;;;;5.03;4.60;;;;;;;;;;5011586;28;20293;-24
2023/06/16 05:49:02;;;;;;;4.97;4.20;;;;;;;;;;5017152;28;20222;-27
2023/06/16 05:51:30;;;;;;;5.23;4.53;;;;;;;;;;5017329;28;20199;-27
2023/06/16 05:53:57;;;;;;;4.57;4.17;;;;;;;;;;5016740;28;20203;-25
2023/06/16 05:56:24;;;;;;;6.67;4.67;;;;;;;;;;5021708;28;20225;-27
2023/06/16 05:58:51;;;;;;;4.67;4.13;;;;;;;;;;5031716;28;20222;-28
2023/06/16 06:01:21;;;;;;;4.70;4.27;;;;;;;;;;5032140;28;20230;-28
2023/06/16 06:03:48;;;;;;;5.72;4.43;;;;;;;;;;5021849;28;20214;-27
2023/06/16 06:06:15;;;;;;;5.13;4.63;;;;;;;;;;5028249;28;20298;-26
2023/06/16 06:08:42;;;;;;;4.90;4.50;;;;;;;;;;5026789;28;20226;-29
2023/06/16 06:11:11;;;;;;;5.10;4.60;;;;;;;;;;5023071;28;20202;-28
2023/06/16 06:13:38;;;;;;;5.70;4.47;;;;;;;;;;5031312;28;20203;-25
2023/06/16 06:16:05;;;;;;;6.27;4.73;;;;;;;;;;5032145;28;20218;-25
2023/06/16 06:18:34;;;;;;;5.73;4.50;;;;;;;;;;5027118;28;20245;-26
2023/06/16 06:21:01;;;;;;;5.38;4.20;;;;;;;;;;5023553;28;20199;-24
2023/06/16 06:23:28;;;;;;;5.83;4.57;;;;;;;;;;5025405;28;20222;-28
2023/06/16 06:25:55;;;;;;;6.03;4.33;;;;;;;;;;5028457;28;20341;-25
2023/06/16 06:28:24;;;;;;;4.77;3.97;;;;;;;;;;5028538;28;20215;-28
2023/06/16 06:30:51;;;;;;;6.90;4.25;;;;;;;;;;5019659;28;20834;-26
2023/06/16 06:33:18;;;;;;;5.23;4.23;;;;;;;;;;5023632;28;20212;-25
2023/06/16 06:35:47;;;;;;;4.57;4.17;;;;;;;;;;5017396;28;20226;-27
2023/06/16 06:38:14;;;;;;;5.28;4.28;;;;;;;;;;5011856;28;20233;-25
2023/06/16 06:40:42;;;;;;;5.43;4.17;;;;;;;;;;5024919;28;20305;-26
2023/06/16 06:43:09;;;;;;;4.80;4.18;;;;;;;;;;5019619;28;20565;-25
2023/06/16 06:45:36;;;;;;;5.10;3.33;;;;;;;;;;5029956;28;20202;-29
2023/06/16 06:48:03;;;;;;;5.90;4.38;;;;;;;;;;5014867;28;20207;-25
2023/06/16 06:50:30;;;;;;;4.20;3.78;;;;;;;;;;5016144;28;20211;-26
2023/06/16 06:52:59;;;;;;;4.65;3.90;;;;;;;;;;5013167;28;20213;-25
2023/06/16 06:55:26;;;;;;;3.90;3.50;;;;;;;;;;5022758;28;20222;-25
2023/06/16 06:57:56;;;;;;;4.80;3.90;;;;;;;;;;5016008;28;20211;-26
2023/06/16 07:00:23;;;;;;;4.38;3.95;;;;;;;;;;5035798;28;20209;-27
2023/06/16 07:02:50;;;;;;;4.00;3.70;;;;;;;;;;5024573;28;20217;-28
2023/06/16 07:05:17;;;;;;;4.63;3.72;;;;;;;;;;5017429;28;20595;-28
2023/06/16 07:07:44;;;;;;;4.20;3.58;;;;;;;;;;5018837;28;20743;-27
2023/06/16 07:10:13;;;;;;;7.50;3.85;;;;;;;;;;5019280;28;20236;-28
2023/06/16 07:12:40;;;;;;;5.70;3.83;;;;;;;;;;5016060;28;20221;-26
2023/06/16 07:15:07;;;;;;;3.90;3.45;;;;;;;;;;5035038;28;20232;-26
2023/06/16 07:17:35;;;;;;;7.57;4.10;;;;;;;;;;5031325;28;20287;-28
2023/06/16 07:20:03;;;;;;;5.38;3.80;;;;;;;;;;5026903;28;20224;-26
2023/06/16 07:22:30;;;;;;;6.07;3.67;;;;;;;;;;5019331;28;20605;-24
2023/06/16 07:24:57;;;;;;;4.28;3.88;;;;;;;;;;5019535;28;20213;-29
2023/06/16 07:27:25;;;;;;;5.35;3.97;;;;;;;;;;5014611;28;20589;-28
2023/06/16 07:29:52;;;;;;;6.43;4.78;;;;;;;;;;5033615;28;20229;-28
2023/06/16 07:32:20;;;;;;;5.63;3.92;;;;;;;;;;5029238;28;20207;-28
2023/06/16 07:34:47;;;;;;;4.93;3.53;;;;;;;;;;5019324;28;20256;-27
2023/06/16 07:37:14;;;;;;;4.57;4.18;;;;;;;;;;5035441;28;20206;-26
2023/06/16 07:39:41;;;;;;;3.50;3.17;;;;;;;;;;5029124;28;20290;-27
2023/06/16 07:42:08;;;;;;;4.50;3.70;;;;;;;;;;5029966;28;20206;-25
2023/06/16 07:44:37;;;;;;;3.70;3.40;;;;;;;;;;5018573;28;20205;-26
2023/06/16 07:47:04;;;;;;;5.07;3.78;;;;;;;;;;5014983;28;20224;-26
2023/06/16 07:49:32;;;;;;;3.78;3.42;;;;;;;;;;5017474;28;20257;-26
2023/06/16 07:51:59;;;;;;;5.45;3.75;;;;;;;;;;5017892;28;20578;-29
2023/06/16 07:54:26;;;;;;;9.13;3.88;;;;;;;;;;5019274;28;20211;-26
2023/06/16 07:56:54;;;;;;;8.43;3.88;;;;;;;;;;5014601;28;20629;-28
2023/06/16 07:59:21;;;;;;;4.47;3.50;;;;;;;;;;5025926;28;20231;-28
2023/06/16 08:01:50;;;;;;;3.45;3.10;;;;;;;;;;5028464;28;20196;-25
2023/06/16 08:04:17;;;;;;;3.97;3.10;;;;;;;;;;5025910;28;20296;-27
2023/06/16 08:06:44;;;;;;;4.45;3.08;;;;;;;;;;5017496;28;20202;-28
2023/06/16 08:09:12;;;;;;;3.97;3.65;;;;;;;;;;5025798;28;20225;-28
2023/06/16 08:11:40;;;;;;;4.90;3.15;;;;;;;;;;5018744;28;20214;-28
2023/06/16 08:14:07;;;;;;;4.80;3.25;;;;;;;;;;5014114;28;20557;-27
2023/06/16 08:16:35;;;;;;;6.32;3.80;;;;;;;;;;5019029;28;20229;-26
2023/06/16 08:19:04;;;;;;;4.18;3.50;;;;;;;;;;5024079;28;21219;-26
2023/06/16 08:21:31;;;;;;;5.55;3.42;;;;;;;;;;5026233;28;20218;-27
2023/06/16 08:23:58;;;;;;;4.30;3.40;;;;;;;;;;5027249;28;20213;-29
2023/06/16 08:26:25;;;;;;;3.63;3.10;;;;;;;;;;5021967;28;20213;-30
2023/06/16 08:28:52;;;;;;;7.75;3.15;;;;;;;;;;5019829;28;20229;-30
2023/06/16 08:31:20;;;;;;;3.42;3.13;;;;;;;;;;5029151;28;20205;-30
2023/06/16 08:33:47;;;;;;;4.72;3.35;;;;;;;;;;5025359;28;20276;-28
2023/06/16 08:36:16;;;;;;;6.63;3.63;;;;;;;;;;5029723;28;20230;-26
2023/06/16 08:38:43;;;;;;;4.40;3.40;;;;;;;;;;5015328;28;20317;-26
2023/06/16 08:41:11;;;;;;;4.40;3.53;;;;;;;;;;5023382;28;20213;-29
2023/06/16 08:43:38;;;;;;;6.85;3.30;;;;;;;;;;5027950;28;20253;-28
2023/06/16 08:46:08;;;;;;;4.57;3.22;;;;;;;;;;5014047;28;20216;-28
2023/06/16 08:48:35;;;;;;;5.18;3.60;;;;;;;;;;5026695;28;20262;-27
2023/06/16 08:51:03;;;;;;;4.75;3.10;;;;;;;;;;5014096;28;20835;-28
2023/06/16 08:53:33;;;;;;;7.85;3.35;;;;;;;;;;5020982;28;20217;-28
2023/06/16 08:56:02;;;;;;;5.68;3.25;;;;;;;;;;5012007;28;20235;-28
2023/06/16 08:58:30;;;;;;;4.97;2.90;;;;;;;;;;5019165;28;20226;-27
2023/06/16 09:00:58;;;;;;;5.18;2.90;;;;;;;;;;5015842;28;20209;-27
2023/06/16 09:03:25;;;;;;;4.05;3.25;;;;;;;;;;5022191;28;20224;-27
2023/06/16 09:05:53;;;;;;;4.07;2.78;;;;;;;;;;5017671;28;20214;-27
2023/06/16 09:08:20;;;;;;;4.45;2.97;;;;;;;;;;5022032;28;20225;-28
2023/06/16 09:10:54;;;;;;;4.05;3.00;;;;;;;;;;5020046;28;20206;-31
2023/06/16 09:13:22;;;;;;;5.80;3.08;;;;;;;;;;5018465;28;20195;-26
2023/06/16 09:15:50;;;;;;;3.78;2.70;;;;;;;;;;5032096;28;20223;-25
2023/06/16 09:18:17;;;;;;;4.32;2.75;;;;;;;;;;5028041;28;20226;-27
2023/06/16 09:20:50;;;;;;;3.25;2.65;;;;;;;;;;5027884;28;20214;-27
2023/06/16 09:23:27;;;;;;;6.25;2.65;;;;;;;;;;5025211;28;20240;-27
2023/06/16 09:25:56;;;;;;;3.70;2.50;;;;;;;;;;5013305;28;20435;-28
2023/06/16 09:28:34;;;;;;;4.20;2.50;;;;;;;;;;5011838;28;20314;-26
2023/06/16 09:31:05;;;;;;;4.00;2.70;;;;;;;;;;5012971;28;20208;-28
2023/06/16 09:33:33;;;;;;;8.45;3.20;;;;;;;;;;5018650;28;20403;-27
2023/06/16 09:36:00;;;;;;;5.43;2.78;;;;;;;;;;5014677;28;20214;-27
2023/06/16 09:38:28;;;;;;;3.92;3.10;;;;;;;;;;5019423;28;20225;-26
2023/06/16 09:41:08;;;;;;;5.00;2.90;;;;;;;;;;5013570;28;20222;-27
2023/06/16 09:43:35;;;;;;;5.50;2.58;;;;;;;;;;5023818;28;20209;-30
2023/06/16 09:46:02;;;;;;;4.00;3.10;;;;;;;;;;5019708;28;20284;-29
2023/06/16 09:48:38;;;;;;;4.45;3.10;;;;;;;;;;5019528;28;20610;-29
2023/06/16 09:51:08;;;;;;;4.35;2.83;;;;;;;;;;5019058;28;20209;-28
2023/06/16 09:53:36;;;;;;;4.10;2.63;;;;;;;;;;5018835;28;20220;-30
2023/06/16 09:56:05;;;;;;;3.72;3.13;;;;;;;;;;5026858;28;20221;-28
2023/06/16 09:58:32;;;;;;;5.40;2.90;;;;;;;;;;5019561;28;20237;-26
2023/06/16 10:00:59;;;;;;;3.00;2.70;;;;;;;;;;5014693;28;20197;-30
2023/06/16 10:03:27;;;;;;;4.53;2.70;;;;;;;;;;5014561;28;20627;-27
2023/06/16 10:05:54;;;;;;;2.90;2.60;;;;;;;;;;5026786;28;20633;-27
2023/06/16 10:08:22;;;;;;;4.80;3.00;;;;;;;;;;5019381;28;20274;-26
2023/06/16 10:10:53;;;;;;;4.53;3.10;;;;;;;;;;5019963;28;20216;-29
2023/06/16 10:13:22;;;;;;;4.30;2.85;;;;;;;;;;5027536;28;20221;-27
2023/06/16 10:15:51;;;;;;;3.28;3.00;;;;;;;;;;5022342;28;20230;-26
2023/06/16 10:18:20;;;;;;;2.85;2.65;;;;;;;;;;5029667;28;20224;-27
2023/06/16 10:20:58;;;;;;;6.68;2.97;;;;;;;;;;5020376;28;20215;-29
2023/06/16 10:23:26;;;;;;;3.92;2.95;;;;;;;;;;5027183;28;20218;-26
2023/06/16 10:25:53;;;;;;;3.28;2.58;;;;;;;;;;5024204;28;20213;-27
2023/06/16 10:28:22;;;;;;;4.43;2.80;;;;;;;;;;5016102;28;20222;-27
2023/06/16 10:30:50;;;;;;;4.90;3.10;;;;;;;;;;5016683;28;20573;-28
2023/06/16 10:33:18;;;;;;;4.95;2.95;;;;;;;;;;5019561;28;20220;-26
2023/06/16 10:35:52;;;;;;;4.65;2.95;;;;;;;;;;5025943;28;20603;-27
2023/06/16 10:38:19;;;;;;;4.32;2.72;;;;;;;;;;5014930;28;20594;-29
2023/06/16 10:40:47;;;;;;;5.90;2.65;;;;;;;;;;5026348;28;20228;-26
2023/06/16 10:43:26;;;;;;;3.03;2.60;;;;;;;;;;5032408;28;20721;-26
2023/06/16 10:46:10;;;;;;;3.58;2.90;;;;;;;;;;5033105;28;20196;-28
2023/06/16 10:51:52;;;;;;;2.95;2.65;;;;;;;;;;5022350;28;20218;-29
2023/06/16 10:54:34;;;;;;;5.20;2.97;;;;;;;;;;5020891;28;20202;-27
2023/06/16 10:57:02;;;;;;;4.32;3.10;;;;;;;;;;5026538;28;20390;-25
2023/06/16 10:59:48;;;;;;;5.72;3.13;;;;;;;;;;5019918;28;20464;-26
2023/06/16 11:02:20;;;;;;;4.72;2.97;;;;;;;;;;5020631;28;20207;-27
2023/06/16 11:05:02;;;;;;;4.22;2.75;;;;;;;;;;5030881;28;20200;-28
2023/06/16 11:07:30;;;;;;;4.63;3.03;;;;;;;;;;5017175;28;20253;-28
2023/06/16 11:09:59;;;;;;;5.78;3.17;;;;;;;;;;5020139;28;20233;-25
2023/06/16 11:12:26;;;;;;;3.45;2.92;;;;;;;;;;5025540;28;20212;-26
2023/06/16 11:14:55;;;;;;;3.33;2.92;;;;;;;;;;5030947;28;20210;-26
2023/06/16 11:17:23;;;;;;;3.05;2.75;;;;;;;;;;5018490;28;20310;-24
2023/06/16 11:19:53;;;;;;;7.65;3.00;;;;;;;;;;5023872;28;20232;-27
2023/06/16 11:22:28;;;;;;;7.28;3.40;;;;;;;;;;5018291;28;20622;-24
2023/06/16 11:24:56;;;;;;;3.78;2.63;;;;;;;;;;5023450;28;20197;-27
2023/06/16 11:27:23;;;;;;;3.22;2.95;;;;;;;;;;5025884;28;20536;-26
2023/06/16 11:29:53;;;;;;;5.45;3.28;;;;;;;;;;5023936;28;20249;-27
2023/06/16 11:32:20;;;;;;;5.38;2.83;;;;;;;;;;5024583;28;20197;-25
2023/06/16 11:34:49;;;;;;;3.03;2.75;;;;;;;;;;5024588;28;20214;-23
2023/06/16 11:37:16;;;;;;;5.63;3.13;;;;;;;;;;5024068;28;20595;-25
2023/06/16 11:39:44;;;;;;;5.70;2.80;;;;;;;;;;5021746;28;20242;-29
2023/06/16 11:42:13;;;;;;;4.38;3.13;;;;;;;;;;5021250;28;20739;-26
2023/06/16 11:44:40;;;;;;;6.05;2.90;;;;;;;;;;5023414;28;20213;-29
2023/06/16 11:47:08;;;;;;;4.40;3.20;;;;;;;;;;5017290;28;20206;-26
2023/06/16 11:49:36;;;;;;;3.65;2.75;;;;;;;;;;5034128;28;20262;-28
2023/06/16 11:52:05;;;;;;;4.07;2.88;;;;;;;;;;5025854;28;20295;-28
2023/06/16 11:54:32;;;;;;;4.25;3.58;;;;;;;;;;5018158;28;20205;-29
2023/06/16 11:56:59;;;;;;;3.10;2.80;;;;;;;;;;5025875;28;20236;-26
2023/06/16 11:59:28;;;;;;;3.45;3.15;;;;;;;;;;5029079;28;20559;-24
2023/06/16 12:01:56;;;;;;;4.45;2.65;;;;;;;;;;5034743;28;20200;-27
2023/06/16 12:04:24;;;;;;;9.13;3.20;;;;;;;;;;5025581;28;20214;-26
2023/06/16 12:06:51;;;;;;;5.68;3.08;;;;;;;;;;5021243;28;20212;-28
2023/06/16 12:09:20;;;;;;;3.65;3.15;;;;;;;;;;5020138;28;20225;-27
2023/06/16 12:11:48;;;;;;;4.78;3.17;;;;;;;;;;5024488;28;20220;-26
2023/06/16 12:14:20;;;;;;;7.53;3.03;;;;;;;;;;5027980;28;20271;-25
2023/06/16 12:16:47;;;;;;;5.97;2.80;;;;;;;;;;5028086;28;20672;-26
2023/06/16 12:19:18;;;;;;;7.88;3.47;;;;;;;;;;5026437;28;20298;-28
2023/06/16 12:21:45;;;;;;;3.47;3.17;;;;;;;;;;5021067;28;20616;-24
2023/06/16 12:24:12;;;;;;;4.05;2.53;;;;;;;;;;5017243;28;20209;-26
2023/06/16 12:26:43;;;;;;;4.30;2.78;;;;;;;;;;5026758;28;20218;-26
2023/06/16 12:29:11;;;;;;;3.65;3.20;;;;;;;;;;5031784;28;20223;-28
2023/06/16 12:31:50;;;;;;;4.45;2.67;;;;;;;;;;5022747;28;20209;-27
2023/06/16 12:34:21;;;;;;;3.85;2.35;;;;;;;;;;5022253;28;20268;-26
2023/06/16 12:36:48;;;;;;;5.68;2.95;;;;;;;;;;5022546;28;20237;-26
2023/06/16 12:39:18;;;;;;;3.50;3.03;;;;;;;;;;5020952;28;20224;-24
2023/06/16 12:41:57;;;;;;;4.68;3.08;;;;;;;;;;5027300;28;20583;-27
2023/06/16 12:44:25;;;;;;;5.88;2.95;;;;;;;;;;5025360;28;20194;-26
2023/06/16 12:46:52;;;;;;;4.78;3.85;;;;;;;;;;5022828;28;20204;-26
2023/06/16 12:49:20;;;;;;;4.65;2.70;;;;;;;;;;5023455;28;20229;-25
2023/06/16 12:51:47;;;;;;;3.50;2.92;;;;;;;;;;5020046;28;20218;-26
2023/06/16 12:54:15;;;;;;;4.18;2.30;;;;;;;;;;5017656;28;20263;-26
2023/06/16 12:56:42;;;;;;;3.90;2.80;;;;;;;;;;5017265;28;20375;-25
2023/06/16 12:59:10;;;;;;;4.93;3.03;;;;;;;;;;5025563;28;20260;-26
2023/06/16 13:01:37;;;;;;;4.10;3.20;;;;;;;;;;5033690;28;20236;-29
2023/06/16 13:04:05;;;;;;;5.28;2.70;;;;;;;;;;5027054;28;20214;-28
2023/06/16 13:06:32;;;;;;;3.65;2.92;;;;;;;;;;5022258;28;20220;-29
2023/06/16 13:08:59;;;;;;;4.28;2.95;;;;;;;;;;5023957;28;20221;-29
2023/06/16 13:11:27;;;;;;;6.57;3.47;;;;;;;;;;5026831;28;20210;-29
2023/06/16 13:13:55;;;;;;;5.18;3.22;;;;;;;;;;5021885;28;20206;-27
2023/06/16 13:16:23;;;;;;;5.38;3.47;;;;;;;;;;5012922;28;20228;-26
2023/06/16 13:18:51;;;;;;;3.50;3.05;;;;;;;;;;5014304;28;20226;-29
2023/06/16 13:21:18;;;;;;;3.30;3.00;;;;;;;;;;5023789;28;20574;-26
2023/06/16 13:23:45;;;;;;;5.15;3.30;;;;;;;;;;5021355;28;20304;-27
2023/06/16 13:26:12;;;;;;;3.40;2.78;;;;;;;;;;5027145;28;20196;-30
2023/06/16 13:28:40;;;;;;;5.75;3.55;;;;;;;;;;5025972;28;20706;-26
2023/06/16 13:31:08;;;;;;;2.95;2.65;;;;;;;;;;5014839;28;20236;-26
2023/06/16 13:33:38;;;;;;;4.53;3.47;;;;;;;;;;5016070;28;20210;-24
2023/06/16 13:36:06;;;;;;;3.58;3.25;;;;;;;;;;5013622;28;20619;-25
2023/06/16 13:38:33;;;;;;;4.18;3.00;;;;;;;;;;5012510;28;20237;-29
2023/06/16 13:41:00;;;;;;;7.68;3.45;;;;;;;;;;5022751;28;20224;-26
2023/06/16 13:43:27;;;;;;;4.10;2.95;;;;;;;;;;5023499;28;20206;-27
2023/06/16 13:45:55;;;;;;;4.63;3.22;;;;;;;;;;5019310;28;20210;-24
2023/06/16 13:48:22;;;;;;;4.53;3.15;;;;;;;;;;5010925;28;20225;-27
2023/06/16 13:50:50;;;;;;;4.28;3.28;;;;;;;;;;5014048;28;20195;-28
2023/06/16 13:53:19;;;;;;;5.30;4.72;;;;;;;;;;5021613;28;20309;-25
2023/06/16 13:55:54;;;;;;;5.00;3.22;;;;;;;;;;5019246;28;20292;-24
2023/06/16 13:58:22;;;;;;;3.47;3.03;;;;;;;;;;5024796;28;20684;-28
2023/06/16 14:00:49;;;;;;;5.47;3.17;;;;;;;;;;5009797;28;20209;-28
2023/06/16 14:03:16;;;;;;;3.70;3.33;;;;;;;;;;5017167;28;20259;-28
2023/06/16 14:05:44;;;;;;;3.88;3.30;;;;;;;;;;5023351;28;20197;-27
2023/06/16 14:08:13;;;;;;;4.05;3.70;;;;;;;;;;5010153;28;20361;-28
2023/06/16 14:10:40;;;;;;;3.20;2.88;;;;;;;;;;5014294;28;20208;-28
2023/06/16 14:13:07;;;;;;;4.55;3.50;;;;;;;;;;5018445;28;20208;-27
2023/06/16 14:15:35;;;;;;;5.22;3.63;;;;;;;;;;5029868;28;20562;-24
2023/06/16 14:18:02;;;;;;;6.35;3.53;;;;;;;;;;5017339;28;20260;-25
2023/06/16 14:20:30;;;;;;;4.90;3.85;;;;;;;;;;5022581;28;20208;-26
2023/06/16 14:22:58;;;;;;;4.80;3.42;;;;;;;;;;5020600;28;20196;-30
2023/06/16 14:25:26;;;;;;;4.75;3.50;;;;;;;;;;5019599;28;20222;-30
2023/06/16 14:27:53;;;;;;;5.53;3.42;;;;;;;;;;5014150;28;20197;-27
2023/06/16 14:30:20;;;;;;;5.00;3.45;;;;;;;;;;5021078;28;20205;-27
2023/06/16 14:32:49;;;;;;;4.25;3.85;;;;;;;;;;5012229;28;20547;-26
2023/06/16 14:35:16;;;;;;;4.32;3.42;;;;;;;;;;5021758;28;20201;-28
2023/06/16 14:37:43;;;;;;;7.15;3.50;;;;;;;;;;5010700;28;20220;-26
2023/06/16 14:40:10;;;;;;;4.47;3.50;;;;;;;;;;5014936;28;20287;-29
2023/06/16 14:42:39;;;;;;;3.78;3.30;;;;;;;;;;5015470;28;20210;-26
2023/06/16 14:45:07;;;;;;;4.13;3.35;;;;;;;;;;5016086;28;20206;-27
2023/06/16 14:47:34;;;;;;;3.20;2.90;;;;;;;;;;5009085;28;20308;-26
2023/06/16 14:50:01;;;;;;;5.65;4.35;;;;;;;;;;5013928;28;20231;-30
2023/06/16 14:52:29;;;;;;;6.97;3.70;;;;;;;;;;5017281;28;20216;-29